sensor_id;sensor_type;location;lat;lon;timestamp;pressure;altitude;pressure_sealevel;temperature;humidity
81658;BME280;71057;51.436;6.768;2024-01-25T00:00:54;102367.75;;;8.18;100.00
81658;BME280;71057;51.436;6.768;2024-01-25T00:03:19;102366.53;;;8.28;100.00
81658;BME280;71057;51.436;6.768;2024-01-25T00:05:45;102368.06;;;8.23;100.00
81658;BME280;71057;51.436;6.768;2024-01-25T00:08:10;102359.16;;;8.22;100.00
81658;BME280;71057;51.436;6.768;2024-01-25T00:10:35;102363.69;;;8.22;100.00
81658;BME280;71057;51.436;6.768;2024-01-25T00:13:00;102372.47;;;8.16;100.00
81658;BME280;71057;51.436;6.768;2024-01-25T00:15:26;102381.69;;;8.13;100.00
81658;BME280;71057;51.436;6.768;2024-01-25T00:17:52;102376.69;;;8.10;100.00
81658;BME280;71057;51.436;6.768;2024-01-25T00:20:17;102383.06;;;8.09;100.00
81658;BME280;71057;51.436;6.768;2024-01-25T00:22:42;102385.59;;;8.11;100.00
81658;BME280;71057;51.436;6.768;2024-01-25T00:25:08;102377.50;;;8.11;100.00
81658;BME280;71057;51.436;6.768;2024-01-25T00:27:33;102389.28;;;8.10;100.00
81658;BME280;71057;51.436;6.768;2024-01-25T00:29:58;102385.59;;;8.11;100.00
81658;BME280;71057;51.436;6.768;2024-01-25T00:32:24;102387.78;;;8.15;100.00
81658;BME280;71057;51.436;6.768;2024-01-25T00:34:49;102394.31;;;8.13;100.00
81658;BME280;71057;51.436;6.768;2024-01-25T00:37:15;102389.97;;;8.03;100.00
81658;BME280;71057;51.436;6.768;2024-01-25T00:39:41;102392.47;;;8.05;100.00
81658;BME280;71057;51.436;6.768;2024-01-25T00:42:06;102389.13;;;8.03;100.00
81658;BME280;71057;51.436;6.768;2024-01-25T00:44:32;102391.31;;;8.08;100.00
81658;BME280;71057;51.436;6.768;2024-01-25T00:46:58;102383.75;;;8.03;100.00
81658;BME280;71057;51.436;6.768;2024-01-25T00:49:24;102382.59;;;8.06;100.00
81658;BME280;71057;51.436;6.768;2024-01-25T00:51:50;102375.19;;;7.91;100.00
81658;BME280;71057;51.436;6.768;2024-01-25T00:54:19;102379.25;;;7.87;100.00
81658;BME280;71057;51.436;6.768;2024-01-25T00:56:44;102366.66;;;7.80;100.00
81658;BME280;71057;51.436;6.768;2024-01-25T00:59:10;102377.06;;;7.66;100.00
81658;BME280;71057;51.436;6.768;2024-01-25T01:01:36;102383.13;;;7.60;100.00
81658;BME280;71057;51.436;6.768;2024-01-25T01:04:02;102390.00;;;7.63;100.00
81658;BME280;71057;51.436;6.768;2024-01-25T01:06:28;102376.25;;;7.50;100.00
81658;BME280;71057;51.436;6.768;2024-01-25T01:08:53;102376.56;;;7.47;100.00
81658;BME280;71057;51.436;6.768;2024-01-25T01:11:19;102381.94;;;7.47;100.00
81658;BME280;71057;51.436;6.768;2024-01-25T01:13:44;102376.25;;;7.50;100.00
81658;BME280;71057;51.436;6.768;2024-01-25T01:16:09;102394.34;;;7.48;100.00
81658;BME280;71057;51.436;6.768;2024-01-25T01:18:35;102399.56;;;7.41;100.00
81658;BME280;71057;51.436;6.768;2024-01-25T01:21:00;102399.41;;;7.42;100.00
81658;BME280;71057;51.436;6.768;2024-01-25T01:23:25;102404.25;;;7.31;100.00
81658;BME280;71057;51.436;6.768;2024-01-25T01:25:51;102393.00;;;7.35;100.00
81658;BME280;71057;51.436;6.768;2024-01-25T01:28:16;102397.19;;;7.22;100.00
81658;BME280;71057;51.436;6.768;2024-01-25T01:30:41;102401.72;;;7.21;100.00
81658;BME280;71057;51.436;6.768;2024-01-25T01:33:08;102407.09;;;7.21;100.00
81658;BME280;71057;51.436;6.768;2024-01-25T01:35:33;102422.00;;;7.15;100.00
81658;BME280;71057;51.436;6.768;2024-01-25T01:37:59;102423.50;;;7.10;100.00
81658;BME280;71057;51.436;6.768;2024-01-25T01:40:24;102418.97;;;7.10;100.00
81658;BME280;71057;51.436;6.768;2024-01-25T01:42:49;102423.19;;;7.13;100.00
81658;BME280;71057;51.436;6.768;2024-01-25T01:45:15;102422.50;;;7.03;100.00
81658;BME280;71057;51.436;6.768;2024-01-25T01:47:40;102427.81;;;6.95;100.00
81658;BME280;71057;51.436;6.768;2024-01-25T01:50:06;102423.75;;;6.91;100.00
81658;BME280;71057;51.436;6.768;2024-01-25T01:52:32;102424.28;;;6.86;100.00
81658;BME280;71057;51.436;6.768;2024-01-25T01:54:58;102422.41;;;6.86;100.00
81658;BME280;71057;51.436;6.768;2024-01-25T01:57:23;102426.44;;;6.91;100.00
81658;BME280;71057;51.436;6.768;2024-01-25T01:59:49;102423.75;;;6.91;100.00
81658;BME280;71057;51.436;6.768;2024-01-25T02:02:15;102438.19;;;6.90;100.00
81658;BME280;71057;51.436;6.768;2024-01-25T02:04:40;102434.69;;;6.97;100.00
81658;BME280;71057;51.436;6.768;2024-01-25T02:07:07;102434.72;;;7.05;100.00
81658;BME280;71057;51.436;6.768;2024-01-25T02:09:32;102438.63;;;7.11;100.00
81658;BME280;71057;51.436;6.768;2024-01-25T02:12:00;102438.31;;;7.22;100.00
81658;BME280;71057;51.436;6.768;2024-01-25T02:14:26;102448.03;;;7.15;100.00
81658;BME280;71057;51.436;6.768;2024-01-25T02:16:51;102443.00;;;7.20;100.00
81658;BME280;71057;51.436;6.768;2024-01-25T02:19:16;102437.97;;;7.25;100.00
81658;BME280;71057;51.436;6.768;2024-01-25T02:21:41;102448.38;;;7.28;100.00
81658;BME280;71057;51.436;6.768;2024-01-25T02:24:07;102454.44;;;7.22;100.00
81658;BME280;71057;51.436;6.768;2024-01-25T02:26:32;102447.00;;;7.16;100.00
81658;BME280;71057;51.436;6.768;2024-01-25T02:28:57;102454.38;;;7.06;100.00
81658;BME280;71057;51.436;6.768;2024-01-25T02:31:23;102460.38;;;7.00;100.00
81658;BME280;71057;51.436;6.768;2024-01-25T02:33:48;102457.66;;;6.92;100.00
81658;BME280;71057;51.436;6.768;2024-01-25T02:36:13;102461.84;;;6.86;100.00
81658;BME280;71057;51.436;6.768;2024-01-25T02:38:38;102466.84;;;6.81;100.00
81658;BME280;71057;51.436;6.768;2024-01-25T02:41:04;102464.66;;;6.76;100.00
81658;BME280;71057;51.436;6.768;2024-01-25T02:43:30;102470.81;;;6.69;100.00
81658;BME280;71057;51.436;6.768;2024-01-25T02:45:55;102473.81;;;6.66;100.00
81658;BME280;71057;51.436;6.768;2024-01-25T02:48:21;102463.25;;;6.64;100.00
81658;BME280;71057;51.436;6.768;2024-01-25T02:50:46;102469.56;;;6.55;100.00
81658;BME280;71057;51.436;6.768;2024-01-25T02:53:11;102478.63;;;6.54;100.00
81658;BME280;71057;51.436;6.768;2024-01-25T02:55:37;102469.34;;;6.48;100.00
81658;BME280;71057;51.436;6.768;2024-01-25T02:58:02;102470.53;;;6.46;100.00
81658;BME280;71057;51.436;6.768;2024-01-25T03:00:27;102464.94;;;6.39;100.00
81658;BME280;71057;51.436;6.768;2024-01-25T03:02:53;102472.09;;;6.30;100.00
81658;BME280;71057;51.436;6.768;2024-01-25T03:05:18;102468.19;;;6.25;100.00
81658;BME280;71057;51.436;6.768;2024-01-25T03:07:43;102473.78;;;6.32;100.00
81658;BME280;71057;51.436;6.768;2024-01-25T03:10:09;102480.47;;;6.27;100.00
81658;BME280;71057;51.436;6.768;2024-01-25T03:12:34;102477.94;;;6.26;100.00
81658;BME280;71057;51.436;6.768;2024-01-25T03:14:59;102479.06;;;6.23;100.00
81658;BME280;71057;51.436;6.768;2024-01-25T03:17:25;102486.13;;;6.24;100.00
81658;BME280;71057;51.436;6.768;2024-01-25T03:19:50;102479.06;;;6.23;100.00
81658;BME280;71057;51.436;6.768;2024-01-25T03:22:16;102486.13;;;6.24;100.00
81658;BME280;71057;51.436;6.768;2024-01-25T03:24:41;102485.16;;;6.25;100.00
81658;BME280;71057;51.436;6.768;2024-01-25T03:27:06;102482.75;;;6.22;100.00
81658;BME280;71057;51.436;6.768;2024-01-25T03:29:40;102484.53;;;6.14;100.00
81658;BME280;71057;51.436;6.768;2024-01-25T03:32:05;102489.38;;;6.10;100.00
81658;BME280;71057;51.436;6.768;2024-01-25T03:34:30;102503.78;;;6.09;100.00
81658;BME280;71057;51.436;6.768;2024-01-25T03:36:56;102495.56;;;6.11;100.00
81658;BME280;71057;51.436;6.768;2024-01-25T03:39:22;102500.19;;;6.00;100.00
81658;BME280;71057;51.436;6.768;2024-01-25T03:41:47;102478.75;;;6.00;100.00
81658;BME280;71057;51.436;6.768;2024-01-25T03:44:13;102485.56;;;5.95;100.00
81658;BME280;71057;51.436;6.768;2024-01-25T03:46:38;102495.75;;;5.91;100.00
81658;BME280;71057;51.436;6.768;2024-01-25T03:49:03;102492.97;;;5.83;100.00
81658;BME280;71057;51.436;6.768;2024-01-25T03:51:29;102498.84;;;5.87;100.00
81658;BME280;71057;51.436;6.768;2024-01-25T03:53:54;102491.28;;;5.82;100.00
81658;BME280;71057;51.436;6.768;2024-01-25T03:56:20;102492.72;;;5.77;100.00
81658;BME280;71057;51.436;6.768;2024-01-25T03:58:47;102489.03;;;5.78;100.00
81658;BME280;71057;51.436;6.768;2024-01-25T04:01:13;102502.06;;;5.72;100.00
81658;BME280;71057;51.436;6.768;2024-01-25T04:03:38;102508.09;;;5.57;100.00
81658;BME280;71057;51.436;6.768;2024-01-25T04:06:04;102513.09;;;5.69;100.00
81658;BME280;71057;51.436;6.768;2024-01-25T04:08:29;102508.94;;;5.57;100.00
81658;BME280;71057;51.436;6.768;2024-01-25T04:10:55;102512.69;;;5.64;100.00
81658;BME280;71057;51.436;6.768;2024-01-25T04:13:20;102517.06;;;5.65;100.00
81658;BME280;71057;51.436;6.768;2024-01-25T04:15:45;102514.84;;;5.61;100.00
81658;BME280;71057;51.436;6.768;2024-01-25T04:18:11;102517.97;;;5.56;100.00
81658;BME280;71057;51.436;6.768;2024-01-25T04:20:36;102509.78;;;5.58;100.00
81658;BME280;71057;51.436;6.768;2024-01-25T04:23:01;102502.22;;;5.53;100.00
81658;BME280;71057;51.436;6.768;2024-01-25T04:25:27;102506.56;;;5.54;100.00
81658;BME280;71057;51.436;6.768;2024-01-25T04:27:52;102505.88;;;5.52;100.00
81658;BME280;71057;51.436;6.768;2024-01-25T04:30:18;102505.88;;;5.52;100.00
81658;BME280;71057;51.436;6.768;2024-01-25T04:32:43;102507.06;;;5.40;100.00
81658;BME280;71057;51.436;6.768;2024-01-25T04:35:09;102510.06;;;5.37;100.00
81658;BME280;71057;51.436;6.768;2024-01-25T04:37:35;102530.50;;;5.38;100.00
81658;BME280;71057;51.436;6.768;2024-01-25T04:40:01;102517.78;;;5.40;100.00
81658;BME280;71057;51.436;6.768;2024-01-25T04:42:26;102521.09;;;5.34;100.00
81658;BME280;71057;51.436;6.768;2024-01-25T04:44:53;102522.75;;;5.35;100.00
81658;BME280;71057;51.436;6.768;2024-01-25T04:47:18;102519.25;;;5.34;100.00
81658;BME280;71057;51.436;6.768;2024-01-25T04:49:43;102521.47;;;5.39;100.00
81658;BME280;71057;51.436;6.768;2024-01-25T04:52:08;102523.75;;;5.34;100.00
81658;BME280;71057;51.436;6.768;2024-01-25T04:54:34;102525.13;;;5.38;100.00
81658;BME280;71057;51.436;6.768;2024-01-25T04:56:59;102528.81;;;5.37;100.00
81658;BME280;71057;51.436;6.768;2024-01-25T04:59:24;102530.53;;;5.28;100.00
81658;BME280;71057;51.436;6.768;2024-01-25T05:01:50;102533.38;;;5.27;100.00
81658;BME280;71057;51.436;6.768;2024-01-25T05:04:16;102536.63;;;5.21;100.00
81658;BME280;71057;51.436;6.768;2024-01-25T05:06:42;102539.88;;;5.24;100.00
81658;BME280;71057;51.436;6.768;2024-01-25T05:09:07;102537.19;;;5.24;100.00
81658;BME280;71057;51.436;6.768;2024-01-25T05:11:38;102540.19;;;5.21;100.00
81658;BME280;71057;51.436;6.768;2024-01-25T05:14:03;102537.94;;;5.16;100.00
81658;BME280;71057;51.436;6.768;2024-01-25T05:16:28;102531.19;;;5.12;100.00
81658;BME280;71057;51.436;6.768;2024-01-25T05:18:53;102526.13;;;5.09;100.00
81658;BME280;71057;51.436;6.768;2024-01-25T05:21:19;102526.97;;;5.10;100.00
81658;BME280;71057;51.436;6.768;2024-01-25T05:23:44;102523.44;;;5.09;100.00
81658;BME280;71057;51.436;6.768;2024-01-25T05:26:10;102523.06;;;5.04;100.00
81658;BME280;71057;51.436;6.768;2024-01-25T05:28:36;102522.06;;;5.05;100.00
81658;BME280;71057;51.436;6.768;2024-01-25T05:31:01;102532.63;;;5.07;100.00
81658;BME280;71057;51.436;6.768;2024-01-25T05:33:26;102521.66;;;5.00;100.00
81658;BME280;71057;51.436;6.768;2024-01-25T05:35:51;102525.13;;;5.10;100.00
81658;BME280;71057;51.436;6.768;2024-01-25T05:38:17;102532.03;;;5.13;100.00
81658;BME280;71057;51.436;6.768;2024-01-25T05:40:42;102537.13;;;5.06;100.00
81658;BME280;71057;51.436;6.768;2024-01-25T05:43:07;102521.66;;;5.00;100.00
81658;BME280;71057;51.436;6.768;2024-01-25T05:45:33;102529.09;;;5.06;100.00
81658;BME280;71057;51.436;6.768;2024-01-25T05:47:59;102527.97;;;5.09;100.00
81658;BME280;71057;51.436;6.768;2024-01-25T05:50:24;102522.91;;;5.06;100.00
81658;BME280;71057;51.436;6.768;2024-01-25T05:52:49;102522.66;;;4.99;100.00
81658;BME280;71057;51.436;6.768;2024-01-25T05:55:15;102525.75;;;5.04;100.00
81658;BME280;71057;51.436;6.768;2024-01-25T05:57:43;102522.97;;;4.96;100.00
81658;BME280;71057;51.436;6.768;2024-01-25T06:00:10;102526.78;;;4.94;100.00
81658;BME280;71057;51.436;6.768;2024-01-25T06:02:37;102534.50;;;4.97;100.00
81658;BME280;71057;51.436;6.768;2024-01-25T06:05:02;102543.78;;;5.02;100.00
81658;BME280;71057;51.436;6.768;2024-01-25T06:07:28;102534.34;;;4.98;100.00
81658;BME280;71057;51.436;6.768;2024-01-25T06:09:53;102538.03;;;4.97;100.00
81658;BME280;71057;51.436;6.768;2024-01-25T06:12:18;102545.34;;;4.95;100.00
81658;BME280;71057;51.436;6.768;2024-01-25T06:14:44;102554.63;;;5.01;100.00
81658;BME280;71057;51.436;6.768;2024-01-25T06:17:09;102538.03;;;4.97;100.00
81658;BME280;71057;51.436;6.768;2024-01-25T06:19:35;102547.34;;;4.93;100.00
81658;BME280;71057;51.436;6.768;2024-01-25T06:22:00;102546.34;;;4.94;100.00
81658;BME280;71057;51.436;6.768;2024-01-25T06:24:25;102547.22;;;4.85;100.00
81658;BME280;71057;51.436;6.768;2024-01-25T06:26:52;102550.47;;;4.79;100.00
81658;BME280;71057;51.436;6.768;2024-01-25T06:29:17;102553.28;;;4.77;100.00
81658;BME280;71057;51.436;6.768;2024-01-25T06:31:43;102550.78;;;4.76;100.00
81658;BME280;71057;51.436;6.768;2024-01-25T06:34:09;102548.81;;;4.68;100.00
81658;BME280;71057;51.436;6.768;2024-01-25T06:36:34;102558.94;;;4.74;100.00
81658;BME280;71057;51.436;6.768;2024-01-25T06:38:59;102555.00;;;4.69;100.00
81658;BME280;71057;51.436;6.768;2024-01-25T06:41:24;102558.94;;;4.74;100.00
81658;BME280;71057;51.436;6.768;2024-01-25T06:43:50;102564.31;;;4.74;100.00
81658;BME280;71057;51.436;6.768;2024-01-25T06:46:15;102570.75;;;4.72;100.00
81658;BME280;71057;51.436;6.768;2024-01-25T06:48:40;102572.44;;;4.73;100.00
81658;BME280;71057;51.436;6.768;2024-01-25T06:51:05;102580.38;;;4.65;100.00
81658;BME280;71057;51.436;6.768;2024-01-25T06:53:31;102577.81;;;4.63;100.00
81658;BME280;71057;51.436;6.768;2024-01-25T06:55:57;102581.31;;;4.64;100.00
81658;BME280;71057;51.436;6.768;2024-01-25T06:58:22;102573.91;;;4.57;100.00
81658;BME280;71057;51.436;6.768;2024-01-25T07:00:48;102575.03;;;4.55;100.00
81658;BME280;71057;51.436;6.768;2024-01-25T07:03:13;102585.72;;;4.55;100.00
81658;BME280;71057;51.436;6.768;2024-01-25T07:05:40;102587.41;;;4.56;100.00
81658;BME280;71057;51.436;6.768;2024-01-25T07:08:05;102580.38;;;4.55;100.00
81658;BME280;71057;51.436;6.768;2024-01-25T07:10:32;102592.47;;;4.59;100.00
81658;BME280;71057;51.436;6.768;2024-01-25T07:12:58;102601.06;;;4.53;100.00
81658;BME280;71057;51.436;6.768;2024-01-25T07:15:23;102603.88;;;4.51;100.00
81658;BME280;71057;51.436;6.768;2024-01-25T07:17:48;102601.78;;;4.55;100.00
81658;BME280;71057;51.436;6.768;2024-01-25T07:20:13;102593.16;;;4.61;100.00
81658;BME280;71057;51.436;6.768;2024-01-25T07:22:39;102585.28;;;4.59;100.00
81658;BME280;71057;51.436;6.768;2024-01-25T07:25:05;102584.84;;;4.54;100.00
81658;BME280;71057;51.436;6.768;2024-01-25T07:27:30;102590.22;;;4.54;100.00
81658;BME280;71057;51.436;6.768;2024-01-25T07:29:56;102605.97;;;4.57;100.00
81658;BME280;71057;51.436;6.768;2024-01-25T07:32:21;102607.38;;;4.62;100.00
81658;BME280;71057;51.436;6.768;2024-01-25T07:34:46;102598.22;;;4.64;100.00
81658;BME280;71057;51.436;6.768;2024-01-25T07:37:12;102599.63;;;4.68;100.00
81658;BME280;71057;51.436;6.768;2024-01-25T07:39:38;102602.44;;;4.67;100.00
81658;BME280;71057;51.436;6.768;2024-01-25T07:42:03;102603.00;;;4.70;100.00
81658;BME280;71057;51.436;6.768;2024-01-25T07:44:29;102604.13;;;4.68;100.00
81658;BME280;71057;51.436;6.768;2024-01-25T07:46:54;102596.97;;;4.68;100.00
81658;BME280;71057;51.436;6.768;2024-01-25T07:49:19;102606.97;;;4.66;100.00
81658;BME280;71057;51.436;6.768;2024-01-25T07:51:45;102603.44;;;4.66;100.00
81658;BME280;71057;51.436;6.768;2024-01-25T07:54:10;102610.19;;;4.70;100.00
81658;BME280;71057;51.436;6.768;2024-01-25T07:56:35;102619.31;;;4.77;100.00
81658;BME280;71057;51.436;6.768;2024-01-25T07:59:01;102620.31;;;4.76;100.00
81658;BME280;71057;51.436;6.768;2024-01-25T08:01:26;102634.38;;;4.78;100.00
81658;BME280;71057;51.436;6.768;2024-01-25T08:03:51;102623.13;;;4.84;100.00
81658;BME280;71057;51.436;6.768;2024-01-25T08:06:17;102627.88;;;4.90;100.00
81658;BME280;71057;51.436;6.768;2024-01-25T08:08:42;102637.88;;;4.88;100.00
81658;BME280;71057;51.436;6.768;2024-01-25T08:11:07;102652.94;;;4.89;100.00
81658;BME280;71057;51.436;6.768;2024-01-25T08:13:33;102644.47;;;5.03;100.00
81658;BME280;71057;51.436;6.768;2024-01-25T08:15:59;102640.22;;;5.10;100.00
81658;BME280;71057;51.436;6.768;2024-01-25T08:18:24;102638.38;;;5.11;100.00
81658;BME280;71057;51.436;6.768;2024-01-25T08:20:52;102629.66;;;5.09;100.00
81658;BME280;71057;51.436;6.768;2024-01-25T08:23:17;102633.44;;;5.16;100.00
81658;BME280;71057;51.436;6.768;2024-01-25T08:25:43;102640.47;;;5.17;100.00
81658;BME280;71057;51.436;6.768;2024-01-25T08:28:09;102636.53;;;5.21;100.00
81658;BME280;71057;51.436;6.768;2024-01-25T08:30:34;102634.25;;;5.26;100.00
81658;BME280;71057;51.436;6.768;2024-01-25T08:32:59;102634.66;;;5.31;100.00
81658;BME280;71057;51.436;6.768;2024-01-25T08:35:24;102637.44;;;5.39;100.00
81658;BME280;71057;51.436;6.768;2024-01-25T08:37:50;102631.22;;;5.39;100.00
81658;BME280;71057;51.436;6.768;2024-01-25T08:40:15;102634.47;;;5.42;100.00
81658;BME280;71057;51.436;6.768;2024-01-25T08:42:41;102639.22;;;5.49;100.00
81658;BME280;71057;51.436;6.768;2024-01-25T08:45:06;102644.41;;;5.60;100.00
81658;BME280;71057;51.436;6.768;2024-01-25T08:47:34;102647.88;;;5.70;100.00
81658;BME280;71057;51.436;6.768;2024-01-25T08:49:59;102632.34;;;5.73;100.00
81658;BME280;71057;51.436;6.768;2024-01-25T08:52:25;102621.09;;;5.70;100.00
81658;BME280;71057;51.436;6.768;2024-01-25T08:54:50;102624.00;;;5.77;100.00
81658;BME280;71057;51.436;6.768;2024-01-25T08:57:15;102615.88;;;5.68;100.00
81658;BME280;71057;51.436;6.768;2024-01-25T08:59:41;102621.41;;;5.85;100.00
81658;BME280;71057;51.436;6.768;2024-01-25T09:02:07;102620.31;;;6.05;100.00
81658;BME280;71057;51.436;6.768;2024-01-25T09:04:32;102622.16;;;6.22;100.00
81658;BME280;71057;51.436;6.768;2024-01-25T09:06:58;102616.81;;;6.22;100.00
81658;BME280;71057;51.436;6.768;2024-01-25T09:09:23;102615.66;;;6.25;100.00
81658;BME280;71057;51.436;6.768;2024-01-25T09:11:49;102610.91;;;6.37;100.00
81658;BME280;71057;51.436;6.768;2024-01-25T09:14:14;102612.13;;;6.24;100.00
81658;BME280;71057;51.436;6.768;2024-01-25T09:16:40;102604.78;;;6.26;100.00
81658;BME280;71057;51.436;6.768;2024-01-25T09:19:05;102596.44;;;6.29;100.00
81658;BME280;71057;51.436;6.768;2024-01-25T09:21:30;102614.19;;;6.30;100.00
81658;BME280;71057;51.436;6.768;2024-01-25T09:23:56;102610.59;;;6.40;100.00
81658;BME280;71057;51.436;6.768;2024-01-25T09:26:21;102623.94;;;6.32;100.00
81658;BME280;71057;51.436;6.768;2024-01-25T09:28:46;102630.75;;;6.44;100.00
81658;BME280;71057;51.436;6.768;2024-01-25T09:31:11;102631.66;;;6.35;100.00
81658;BME280;71057;51.436;6.768;2024-01-25T09:33:37;102638.94;;;6.42;100.00
81658;BME280;71057;51.436;6.768;2024-01-25T09:36:02;102639.50;;;6.46;100.00
81658;BME280;71057;51.436;6.768;2024-01-25T09:38:27;102634.25;;;6.44;100.00
81658;BME280;71057;51.436;6.768;2024-01-25T09:40:53;102627.53;;;6.58;100.00
81658;BME280;71057;51.436;6.768;2024-01-25T09:43:18;102629.69;;;6.80;100.00
81658;BME280;71057;51.436;6.768;2024-01-25T09:45:46;102633.13;;;6.91;100.00
81658;BME280;71057;51.436;6.768;2024-01-25T09:48:14;102634.72;;;7.01;100.00
81658;BME280;71057;51.436;6.768;2024-01-25T09:50:40;102652.88;;;7.07;100.00
81658;BME280;71057;51.436;6.768;2024-01-25T09:53:06;102655.19;;;7.02;100.00
81658;BME280;71057;51.436;6.768;2024-01-25T09:55:36;102653.31;;;7.21;100.00
81658;BME280;71057;51.436;6.768;2024-01-25T09:58:05;102650.06;;;7.17;100.00
81658;BME280;71057;51.436;6.768;2024-01-25T10:00:33;102648.16;;;7.35;100.00
81658;BME280;71057;51.436;6.768;2024-01-25T10:02:58;102650.91;;;7.43;100.00
81658;BME280;71057;51.436;6.768;2024-01-25T10:05:23;102641.16;;;7.42;100.00
81658;BME280;71057;51.436;6.768;2024-01-25T10:07:48;102647.84;;;7.38;100.00
81658;BME280;71057;51.436;6.768;2024-01-25T10:10:14;102649.28;;;6.99;100.00
81658;BME280;71057;51.436;6.768;2024-01-25T10:12:42;102654.38;;;7.10;100.00
81658;BME280;71057;51.436;6.768;2024-01-25T10:15:08;102659.88;;;7.26;100.00
81658;BME280;71057;51.436;6.768;2024-01-25T10:17:34;102646.16;;;7.37;100.00
81658;BME280;71057;51.436;6.768;2024-01-25T10:20:00;102641.19;;;7.51;100.00
81658;BME280;71057;51.436;6.768;2024-01-25T10:22:25;102642.16;;;7.41;100.00
81658;BME280;71057;51.436;6.768;2024-01-25T10:24:52;102649.56;;;7.48;100.00
81658;BME280;71057;51.436;6.768;2024-01-25T10:27:19;102637.47;;;7.43;100.00
81658;BME280;71057;51.436;6.768;2024-01-25T10:29:44;102631.72;;;7.38;100.00
81658;BME280;71057;51.436;6.768;2024-01-25T10:32:09;102640.03;;;7.53;100.00
81658;BME280;71057;51.436;6.768;2024-01-25T10:34:36;102634.88;;;7.60;100.00
81658;BME280;71057;51.436;6.768;2024-01-25T10:37:03;102636.63;;;7.43;100.00
81658;BME280;71057;51.436;6.768;2024-01-25T10:39:30;102639.94;;;7.37;100.00
81658;BME280;71057;51.436;6.768;2024-01-25T10:41:56;102631.81;;;7.55;100.00
81658;BME280;71057;51.436;6.768;2024-01-25T10:44:21;102627.81;;;7.59;100.00
81658;BME280;71057;51.436;6.768;2024-01-25T10:46:47;102614.97;;;7.44;100.00
81658;BME280;71057;51.436;6.768;2024-01-25T10:49:13;102613.28;;;7.43;100.00
81658;BME280;71057;51.436;6.768;2024-01-25T10:51:40;102609.03;;;7.75;100.00
81658;BME280;71057;51.436;6.768;2024-01-25T10:54:07;102602.69;;;7.84;100.00
81658;BME280;71057;51.436;6.768;2024-01-25T10:56:35;102602.34;;;7.79;100.00
81658;BME280;71057;51.436;6.768;2024-01-25T10:59:00;102594.97;;;7.89;100.00
81658;BME280;71057;51.436;6.768;2024-01-25T11:01:27;102597.13;;;7.86;100.00
81658;BME280;71057;51.436;6.768;2024-01-25T11:03:52;102588.91;;;7.95;100.00
81658;BME280;71057;51.436;6.768;2024-01-25T11:06:20;102579.69;;;7.98;100.00
81658;BME280;71057;51.436;6.768;2024-01-25T11:08:46;102582.56;;;8.13;100.00
81658;BME280;71057;51.436;6.768;2024-01-25T11:11:13;102580.38;;;8.32;100.00
81658;BME280;71057;51.436;6.768;2024-01-25T11:13:39;102581.13;;;8.35;100.00
81658;BME280;71057;51.436;6.768;2024-01-25T11:16:15;102576.06;;;8.56;100.00
81658;BME280;71057;51.436;6.768;2024-01-25T11:18:52;102573.88;;;8.35;100.00
81658;BME280;71057;51.436;6.768;2024-01-25T11:21:37;102558.56;;;8.44;100.00
81658;BME280;71057;51.436;6.768;2024-01-25T11:24:03;102558.06;;;8.48;100.00
81658;BME280;71057;51.436;6.768;2024-01-25T11:26:29;102554.69;;;8.63;100.00
81658;BME280;71057;51.436;6.768;2024-01-25T11:28:55;102563.53;;;8.87;100.00
81658;BME280;71057;51.436;6.768;2024-01-25T11:31:22;102546.47;;;9.11;100.00
81658;BME280;71057;51.436;6.768;2024-01-25T11:33:48;102536.53;;;9.12;100.00
81658;BME280;71057;51.436;6.768;2024-01-25T11:36:14;102537.53;;;9.19;100.00
81658;BME280;71057;51.436;6.768;2024-01-25T11:38:39;102531.06;;;9.28;100.00
81658;BME280;71057;51.436;6.768;2024-01-25T11:41:04;102535.06;;;9.40;100.00
81658;BME280;71057;51.436;6.768;2024-01-25T11:43:30;102531.72;;;9.38;100.00
81658;BME280;71057;51.436;6.768;2024-01-25T11:45:55;102527.59;;;9.51;100.00
81658;BME280;71057;51.436;6.768;2024-01-25T11:48:20;102531.97;;;9.52;100.00
81658;BME280;71057;51.436;6.768;2024-01-25T11:50:46;102530.88;;;9.69;100.00
81658;BME280;71057;51.436;6.768;2024-01-25T11:53:11;102535.44;;;9.68;100.00
81658;BME280;71057;51.436;6.768;2024-01-25T11:55:36;102527.81;;;9.41;100.00
81658;BME280;71057;51.436;6.768;2024-01-25T11:58:02;102512.13;;;9.13;100.00
81658;BME280;71057;51.436;6.768;2024-01-25T12:00:27;102503.50;;;9.18;100.00
81658;BME280;71057;51.436;6.768;2024-01-25T12:02:53;102500.25;;;9.31;100.00
81658;BME280;71057;51.436;6.768;2024-01-25T12:05:19;102502.59;;;9.34;100.00
81658;BME280;71057;51.436;6.768;2024-01-25T12:07:44;102506.88;;;9.20;100.00
81658;BME280;71057;51.436;6.768;2024-01-25T12:10:15;102509.81;;;9.02;100.00
81658;BME280;71057;51.436;6.768;2024-01-25T12:12:41;102504.47;;;8.86;100.00
81658;BME280;71057;51.436;6.768;2024-01-25T12:15:07;102503.72;;;9.08;100.00
81658;BME280;71057;51.436;6.768;2024-01-25T12:17:33;102502.34;;;9.21;100.00
81658;BME280;71057;51.436;6.768;2024-01-25T12:20:02;102489.88;;;9.20;100.00
81658;BME280;71057;51.436;6.768;2024-01-25T12:22:28;102486.03;;;9.14;100.00
81658;BME280;71057;51.436;6.768;2024-01-25T12:24:55;102490.75;;;9.12;100.00
81658;BME280;71057;51.436;6.768;2024-01-25T12:27:21;102484.22;;;9.06;100.00
81658;BME280;71057;51.436;6.768;2024-01-25T12:29:50;102482.28;;;8.84;100.00
81658;BME280;71057;51.436;6.768;2024-01-25T12:32:16;102492.41;;;8.82;100.00
81658;BME280;71057;51.436;6.768;2024-01-25T12:34:42;102501.41;;;8.97;100.00
81658;BME280;71057;51.436;6.768;2024-01-25T12:37:08;102495.38;;;8.87;100.00
81658;BME280;71057;51.436;6.768;2024-01-25T12:39:34;102487.50;;;8.85;100.00
81658;BME280;71057;51.436;6.768;2024-01-25T12:41:59;102482.09;;;8.85;100.00